Current Conditions
Thunderstorm
Conditions



Pressure
1005.92 (hPa) - 29.7 (inHG)
Visibility

10.0 (km) - 6.2 (miles)
   Temperature
16  °C
61°F
15  °C
Dewpoint
94  %
 Humidity
   Wind Speed
26  km/h
14  kts
16  mph
7.2  m/s
   Wind Direction
 320°
North West
   Airport Data
LELL
Location Sabadell 8 km (4.97 mi)
Metar :LELL 222300Z AUTO 32014KT 290V010 9999 VCTS -SHRA FEW050/// ///CB 16/15 Q1006 RETSRATSRATSRA
Wed 23rd October 01:00 am
   Raw Metar Info
Raw METAR is the most common format in the world for the transmission of observational weather data. It is highly standardized through the International Civil Aviation Organization (ICAO), which allows it to be understood throughout most of the world.
   API Info
Data Provided by
https://www.checkwx.com/weather/LELL
   © Info
CSS/SVG/PHP scripts were developed by weather34.com for use in the weather34 template © 2015-2019

Guide Info provided by Metar-Wikipedia